createdAt,value
2022-10-13T00:03:47.500Z,57.63
2022-10-13T00:07:55.450Z,51.45
2022-10-13T00:11:58.010Z,50.08
2022-10-13T00:16:02.565Z,49.95
2022-10-13T00:20:06.560Z,54.83
2022-10-13T00:24:11.486Z,52.55
2022-10-13T00:28:15.092Z,49.78
2022-10-13T00:32:17.351Z,51.53
2022-10-13T00:36:20.015Z,54.80
2022-10-13T00:40:21.723Z,54.17
2022-10-13T00:44:58.659Z,52.22
2022-10-13T00:49:04.608Z,50.75
2022-10-13T00:53:07.511Z,52.00
2022-10-13T00:57:10.053Z,56.70
2022-10-13T01:01:11.928Z,47.88
2022-10-13T01:05:14.065Z,50.20
2022-10-13T01:09:16.126Z,46.90
2022-10-13T01:13:46.720Z,51.55
2022-10-13T01:18:13.881Z,47.90
2022-10-13T01:22:38.241Z,50.45
2022-10-13T01:27:06.272Z,50.60
2022-10-13T01:31:32.393Z,48.65
2022-10-13T01:36:08.380Z,47.22
2022-10-13T01:40:27.543Z,54.67
2022-10-13T01:44:36.876Z,48.20
2022-10-13T01:48:40.360Z,53.25
2022-10-13T01:52:42.806Z,51.92
2022-10-13T01:56:53.306Z,55.30
2022-10-13T02:01:28.443Z,52.97
2022-10-13T02:05:49.154Z,50.42
2022-10-13T02:10:16.074Z,48.45
2022-10-13T02:14:30.017Z,54.63
2022-10-13T02:18:35.455Z,51.70
2022-10-13T02:22:45.985Z,48.50
2022-10-13T02:26:48.183Z,47.33
2022-10-13T02:30:54.131Z,55.67
2022-10-13T02:34:56.000Z,56.35
2022-10-13T02:38:57.878Z,56.67
2022-10-13T02:42:59.873Z,57.08
2022-10-13T02:47:02.320Z,61.38
2022-10-13T02:51:04.527Z,47.28
2022-10-13T02:55:07.528Z,58.80
2022-10-13T02:59:09.409Z,52.70
2022-10-13T03:03:11.530Z,57.97
2022-10-13T03:07:13.355Z,59.47
2022-10-13T03:11:15.087Z,57.03
2022-10-13T03:15:17.177Z,54.03
2022-10-13T03:19:19.115Z,53.70
2022-10-13T03:23:20.916Z,52.38
2022-10-13T03:27:22.578Z,50.72
2022-10-13T03:31:24.475Z,50.78
2022-10-13T03:35:26.163Z,55.35
2022-10-13T03:39:28.214Z,50.50
2022-10-13T03:43:29.906Z,51.85
2022-10-13T03:47:31.757Z,49.90
2022-10-13T03:51:34.314Z,53.15
2022-10-13T03:55:36.093Z,50.50
2022-10-13T03:59:40.489Z,51.47
2022-10-13T04:03:42.650Z,47.47
2022-10-13T04:07:44.354Z,53.10
2022-10-13T04:11:53.680Z,53.20
2022-10-13T04:15:55.501Z,59.13
2022-10-13T04:19:57.338Z,52.10
2022-10-13T04:24:00.340Z,48.78
2022-10-13T04:28:03.845Z,50.53
2022-10-13T04:32:07.117Z,48.85
2022-10-13T04:36:11.999Z,45.47
2022-10-13T04:40:13.969Z,46.33
2022-10-13T04:44:15.937Z,52.55
2022-10-13T04:48:17.575Z,43.95
2022-10-13T04:52:19.710Z,45.22
2022-10-13T04:56:22.045Z,44.67
2022-10-13T05:00:23.832Z,42.05
2022-10-13T05:04:25.684Z,46.97
2022-10-13T05:08:27.515Z,48.75
2022-10-13T05:12:29.310Z,51.45
2022-10-13T05:16:31.291Z,46.38
2022-10-13T05:20:33.392Z,44.33
2022-10-13T05:24:38.579Z,42.25
2022-10-13T05:28:41.108Z,44.97
2022-10-13T05:32:42.959Z,48.85
2022-10-13T05:36:44.928Z,47.58
2022-10-13T05:40:46.771Z,45.67
2022-10-13T05:44:48.468Z,47.05
2022-10-13T05:48:50.389Z,50.90
2022-10-13T05:52:52.218Z,51.88
2022-10-13T05:57:06.452Z,46.25
2022-10-13T06:01:12.657Z,53.30
2022-10-13T06:05:17.496Z,51.13
2022-10-13T06:09:19.498Z,45.95
2022-10-13T06:13:21.323Z,47.45
2022-10-13T06:17:23.055Z,50.22
2022-10-13T06:21:24.844Z,57.20
2022-10-13T06:25:26.573Z,55.58
2022-10-13T06:29:28.435Z,53.08
2022-10-13T06:33:30.116Z,56.03
2022-10-13T06:37:32.314Z,56.00
2022-10-13T06:41:33.999Z,62.50
2022-10-13T06:45:35.830Z,60.20
2022-10-13T06:49:37.510Z,64.00
2022-10-13T06:53:39.548Z,63.55
2022-10-13T06:57:41.318Z,61.35
2022-10-13T07:01:43.100Z,56.08
2022-10-13T07:05:47.290Z,58.10
2022-10-13T07:09:49.489Z,57.10
2022-10-13T07:13:51.289Z,58.20
2022-10-13T07:17:54.094Z,51.03
2022-10-13T07:21:56.839Z,49.88
2022-10-13T07:25:59.390Z,50.45
2022-10-13T07:30:01.349Z,47.30
2022-10-13T07:34:04.966Z,44.33
2022-10-13T07:38:08.334Z,42.72
2022-10-13T07:42:10.227Z,36.47
2022-10-13T07:46:15.170Z,34.42
2022-10-13T07:50:17.116Z,32.47
2022-10-13T07:54:21.590Z,31.13
2022-10-13T07:58:25.775Z,32.25
2022-10-13T08:02:27.805Z,30.85
2022-10-13T08:06:29.843Z,31.30
2022-10-13T08:10:33.161Z,29.83
2022-10-13T08:14:35.058Z,27.67
2022-10-13T08:18:36.963Z,29.35
2022-10-13T08:22:39.284Z,26.83
2022-10-13T08:26:42.002Z,25.48
2022-10-13T08:30:44.337Z,24.10
2022-10-13T08:34:46.166Z,21.75
2022-10-13T08:38:48.402Z,21.10
2022-10-13T08:42:50.976Z,21.17
2022-10-13T08:47:05.446Z,19.35
2022-10-13T08:51:07.875Z,18.63
2022-10-13T08:55:23.413Z,18.10
2022-10-13T08:59:25.214Z,14.90
2022-10-13T09:03:29.685Z,15.65
2022-10-13T09:07:34.656Z,17.40
2022-10-13T09:11:39.456Z,14.50
2022-10-13T09:15:46.369Z,10.98
2022-10-13T09:20:01.192Z,12.17
2022-10-13T09:24:08.304Z,13.40
2022-10-13T09:28:29.000Z,13.23
2022-10-13T09:32:35.853Z,12.65
2022-10-13T09:36:37.831Z,12.80
2022-10-13T09:40:40.897Z,12.70
2022-10-13T09:44:43.082Z,11.63
2022-10-13T09:48:50.602Z,9.90
2022-10-13T09:52:52.639Z,11.43
2022-10-13T09:57:05.770Z,9.95
2022-10-13T10:01:21.908Z,6.05
2022-10-13T10:05:27.138Z,7.35
2022-10-13T10:09:33.256Z,8.27
2022-10-13T10:13:35.365Z,6.45
2022-10-13T10:17:49.017Z,7.80
2022-10-13T10:21:58.578Z,6.32
2022-10-13T10:26:06.072Z,6.22
2022-10-13T10:30:21.346Z,7.38
2022-10-13T10:34:27.905Z,6.15
2022-10-13T10:38:43.976Z,5.57
2022-10-13T10:43:13.726Z,5.28
2022-10-13T10:55:50.771Z,4.80
2022-10-13T11:00:03.670Z,5.05
2022-10-13T11:04:32.304Z,4.82
2022-10-13T11:08:42.891Z,4.88
2022-10-13T11:12:51.235Z,4.07
2022-10-13T11:17:05.294Z,4.28
2022-10-13T11:21:06.990Z,4.00
2022-10-13T11:25:41.882Z,4.97
2022-10-13T11:29:43.960Z,4.75
2022-10-13T11:33:47.789Z,4.47
2022-10-13T11:38:09.285Z,4.75
2022-10-13T11:42:12.487Z,4.18
2022-10-13T11:46:26.666Z,4.88
2022-10-13T11:50:46.478Z,4.30
2022-10-13T11:55:01.465Z,3.92
2022-10-13T11:59:03.367Z,4.97
2022-10-13T12:03:05.518Z,4.43
2022-10-13T12:07:10.633Z,4.40
2022-10-13T12:11:37.865Z,4.32
2022-10-13T12:15:43.482Z,4.82
2022-10-13T12:19:45.230Z,3.88
2022-10-13T12:23:48.941Z,3.83
2022-10-13T12:27:53.944Z,4.25
2022-10-13T12:31:58.200Z,3.72
2022-10-13T12:36:21.484Z,4.00
2022-10-13T12:40:24.463Z,4.28
2022-10-13T12:44:29.419Z,3.50
2022-10-13T12:48:33.740Z,4.10
2022-10-13T12:52:35.594Z,3.67
2022-10-13T12:56:37.418Z,4.00
2022-10-13T13:00:39.888Z,3.40
2022-10-13T13:04:43.902Z,4.30
2022-10-13T13:08:45.659Z,4.43
2022-10-13T13:12:49.355Z,4.30
2022-10-13T13:17:03.795Z,4.22
2022-10-13T13:21:07.574Z,4.20
2022-10-13T13:25:09.288Z,4.00
2022-10-13T13:29:11.366Z,4.25
2022-10-13T13:33:13.060Z,5.03
2022-10-13T13:37:29.756Z,4.88
2022-10-13T13:41:31.756Z,5.75
2022-10-13T13:45:33.825Z,6.75
2022-10-13T13:49:36.812Z,5.80
2022-10-13T13:53:38.842Z,6.60
2022-10-13T13:57:42.370Z,6.22
2022-10-13T14:01:44.165Z,6.60
2022-10-13T14:05:45.984Z,7.03
2022-10-13T14:09:49.168Z,5.65
2022-10-13T14:13:50.925Z,5.97
2022-10-13T14:18:02.400Z,6.32
2022-10-13T14:22:09.186Z,6.18
2022-10-13T14:26:11.368Z,5.60
2022-10-13T14:30:14.350Z,6.43
2022-10-13T14:34:16.198Z,5.55
2022-10-13T14:38:17.951Z,6.28
2022-10-13T14:42:22.818Z,7.93
2022-10-13T14:46:24.838Z,11.07
2022-10-13T14:50:26.635Z,11.48
2022-10-13T14:54:30.356Z,5.03
2022-10-13T14:58:32.275Z,6.88
2022-10-13T15:02:34.037Z,4.80
2022-10-13T15:06:39.083Z,5.90
2022-10-13T15:10:40.829Z,6.40
2022-10-13T15:14:42.595Z,6.78
2022-10-13T15:18:44.976Z,5.43
2022-10-13T15:22:47.563Z,5.72
2022-10-13T15:26:50.053Z,6.13
2022-10-13T15:30:52.001Z,6.32
2022-10-13T15:34:56.151Z,5.30
2022-10-13T15:38:58.004Z,6.55
2022-10-13T15:43:00.372Z,7.40
2022-10-13T15:47:11.606Z,7.90
2022-10-13T15:51:19.623Z,31.10
2022-10-13T15:55:21.668Z,35.35
2022-10-13T15:59:25.510Z,36.45
2022-10-13T16:03:29.781Z,35.83
2022-10-13T16:07:32.437Z,27.13
2022-10-13T16:11:34.196Z,29.85
2022-10-13T16:15:35.897Z,25.83
2022-10-13T16:19:37.706Z,21.73
2022-10-13T16:23:39.674Z,22.92
2022-10-13T16:27:44.584Z,24.50
2022-10-13T16:31:47.036Z,23.50
2022-10-13T16:35:48.848Z,24.15
2022-10-13T16:39:52.063Z,26.50
2022-10-13T16:43:54.973Z,26.15
2022-10-13T16:47:56.658Z,24.60
2022-10-13T16:51:58.433Z,23.80
2022-10-13T16:56:00.286Z,26.25
2022-10-13T17:00:02.224Z,29.45
2022-10-13T17:04:04.857Z,25.48
2022-10-13T17:08:07.221Z,25.23
2022-10-13T17:12:09.049Z,22.88
2022-10-13T17:16:10.854Z,23.20
2022-10-13T17:20:13.244Z,26.30
2022-10-13T17:24:17.042Z,24.52
2022-10-13T17:28:19.208Z,22.92
2022-10-13T17:32:21.917Z,26.38
2022-10-13T17:36:26.069Z,27.48
2022-10-13T17:40:27.837Z,29.42
2022-10-13T17:44:29.675Z,28.95
2022-10-13T17:48:31.429Z,26.60
2022-10-13T17:52:33.100Z,22.88
2022-10-13T17:56:35.099Z,21.60
2022-10-13T18:01:00.755Z,19.20
2022-10-13T18:04:59.091Z,19.52
2022-10-13T18:09:00.839Z,18.15
2022-10-13T18:13:02.654Z,17.77
2022-10-13T18:17:04.724Z,19.27
2022-10-13T18:21:08.102Z,18.67
2022-10-13T18:25:10.163Z,18.48
2022-10-13T18:29:12.673Z,19.02
2022-10-13T18:33:14.581Z,19.38
2022-10-13T18:37:16.573Z,21.98
2022-10-13T18:41:20.665Z,23.33
2022-10-13T18:45:22.570Z,25.00
2022-10-13T18:49:31.202Z,22.63
2022-10-13T18:53:35.350Z,21.55
2022-10-13T18:57:38.210Z,20.85
2022-10-13T19:01:40.912Z,21.70
2022-10-13T19:05:42.612Z,20.63
2022-10-13T19:09:44.396Z,25.00
2022-10-13T19:13:47.043Z,23.73
2022-10-13T19:17:48.857Z,26.67
2022-10-13T19:21:50.737Z,26.80
2022-10-13T19:25:52.923Z,25.55
2022-10-13T19:29:54.889Z,24.63
2022-10-13T19:33:57.856Z,24.50
2022-10-13T19:37:59.525Z,22.40
2022-10-13T19:42:02.725Z,23.00
2022-10-13T19:46:06.645Z,25.08
2022-10-13T19:50:08.903Z,24.20
2022-10-13T19:54:11.205Z,24.98
2022-10-13T19:58:16.552Z,24.33
2022-10-13T20:02:18.233Z,27.42
2022-10-13T20:06:20.809Z,26.85
2022-10-13T20:10:22.862Z,32.63
2022-10-13T20:14:24.699Z,31.55
2022-10-13T20:18:26.440Z,32.28
2022-10-13T20:22:28.267Z,48.72
2022-10-13T20:26:29.989Z,47.00
2022-10-13T20:30:32.341Z,42.65
2022-10-13T20:34:34.196Z,34.75
2022-10-13T20:38:36.695Z,38.45
2022-10-13T20:42:38.450Z,36.10
2022-10-13T20:46:40.543Z,30.05
2022-10-13T20:50:42.404Z,31.33
2022-10-13T20:54:44.596Z,26.95
2022-10-13T20:58:47.400Z,28.67
2022-10-13T21:02:49.446Z,33.08
2022-10-13T21:06:52.153Z,28.27
2022-10-13T21:10:53.963Z,28.25
2022-10-13T21:14:57.113Z,31.85
2022-10-13T21:18:59.392Z,31.60
2022-10-13T21:23:03.233Z,34.45
2022-10-13T21:27:05.288Z,31.52
2022-10-13T21:31:12.420Z,29.67
2022-10-13T21:35:15.812Z,33.53
2022-10-13T21:39:17.481Z,30.92
2022-10-13T21:43:19.951Z,30.20
2022-10-13T21:47:21.965Z,29.60
2022-10-13T21:51:29.912Z,28.67
2022-10-13T21:55:33.127Z,31.05
2022-10-13T21:59:35.039Z,29.08
2022-10-13T22:03:36.770Z,31.58
2022-10-13T22:07:38.598Z,29.27
2022-10-13T22:11:41.117Z,29.08
2022-10-13T22:15:45.575Z,35.63
2022-10-13T22:19:50.484Z,37.92
2022-10-13T22:23:56.275Z,38.47
2022-10-13T22:27:58.055Z,37.88
2022-10-13T22:32:00.326Z,31.33
2022-10-13T22:36:07.371Z,35.13
2022-10-13T22:40:09.584Z,30.52
2022-10-13T22:44:11.808Z,32.67
2022-10-13T22:48:14.165Z,27.08
2022-10-13T22:52:15.905Z,27.15
2022-10-13T22:56:22.712Z,32.95
2022-10-13T23:00:24.399Z,33.78
2022-10-13T23:04:26.190Z,31.55
2022-10-13T23:08:28.118Z,26.25
2022-10-13T23:12:29.928Z,28.13
2022-10-13T23:16:32.231Z,28.13
2022-10-13T23:20:34.209Z,26.50
2022-10-13T23:24:36.115Z,25.42
2022-10-13T23:28:38.641Z,25.80
2022-10-13T23:32:40.466Z,27.92
2022-10-13T23:36:42.403Z,26.08
2022-10-13T23:40:44.103Z,26.70
2022-10-13T23:44:46.162Z,25.83
2022-10-13T23:48:48.176Z,27.27
2022-10-13T23:52:50.115Z,25.45
2022-10-13T23:56:52.803Z,27.27
